sensor_id;sensor_type;location;lat;lon;timestamp;P1;durP1;ratioP1;P2;durP2;ratioP2
25609;SDS011;13479;49.044;8.716;2023-02-26T05:01:46;6.93;;;2.37;;
25609;SDS011;13479;49.044;8.716;2023-02-26T05:04:12;4.87;;;2.30;;
25609;SDS011;13479;49.044;8.716;2023-02-26T05:06:37;5.17;;;2.30;;
25609;SDS011;13479;49.044;8.716;2023-02-26T05:09:03;5.30;;;2.00;;
25609;SDS011;13479;49.044;8.716;2023-02-26T05:11:28;6.53;;;2.40;;
25609;SDS011;13479;49.044;8.716;2023-02-26T05:13:53;6.23;;;2.33;;
25609;SDS011;13479;49.044;8.716;2023-02-26T05:16:19;3.53;;;1.80;;
25609;SDS011;13479;49.044;8.716;2023-02-26T05:18:44;6.63;;;2.50;;
25609;SDS011;13479;49.044;8.716;2023-02-26T05:21:09;5.87;;;2.27;;
25609;SDS011;13479;49.044;8.716;2023-02-26T05:23:35;6.40;;;2.00;;
25609;SDS011;13479;49.044;8.716;2023-02-26T05:26:00;4.13;;;2.07;;
25609;SDS011;13479;49.044;8.716;2023-02-26T05:28:25;5.70;;;2.00;;
25609;SDS011;13479;49.044;8.716;2023-02-26T05:30:51;6.53;;;2.13;;
25609;SDS011;13479;49.044;8.716;2023-02-26T05:33:17;5.10;;;1.80;;
25609;SDS011;13479;49.044;8.716;2023-02-26T05:35:44;6.20;;;2.10;;
25609;SDS011;13479;49.044;8.716;2023-02-26T05:38:09;5.70;;;2.00;;
25609;SDS011;13479;49.044;8.716;2023-02-26T05:40:34;4.93;;;2.37;;
25609;SDS011;13479;49.044;8.716;2023-02-26T05:43:00;5.83;;;1.83;;
25609;SDS011;13479;49.044;8.716;2023-02-26T05:45:25;4.73;;;1.97;;
25609;SDS011;13479;49.044;8.716;2023-02-26T05:47:50;3.90;;;1.80;;
25609;SDS011;13479;49.044;8.716;2023-02-26T05:50:15;4.53;;;2.03;;
25609;SDS011;13479;49.044;8.716;2023-02-26T05:52:41;4.63;;;1.90;;
25609;SDS011;13479;49.044;8.716;2023-02-26T05:55:07;6.73;;;1.97;;
25609;SDS011;13479;49.044;8.716;2023-02-26T05:57:33;9.43;;;2.20;;
25609;SDS011;13479;49.044;8.716;2023-02-26T05:59:58;4.67;;;1.73;;
25609;SDS011;13479;49.044;8.716;2023-02-26T06:02:23;5.20;;;2.10;;
25609;SDS011;13479;49.044;8.716;2023-02-26T06:04:49;11.00;;;1.67;;
25609;SDS011;13479;49.044;8.716;2023-02-26T06:07:14;6.23;;;1.60;;
25609;SDS011;13479;49.044;8.716;2023-02-26T06:09:40;4.97;;;2.23;;
25609;SDS011;13479;49.044;8.716;2023-02-26T06:12:05;12.13;;;7.00;;
25609;SDS011;13479;49.044;8.716;2023-02-26T06:14:32;8.43;;;3.40;;
25609;SDS011;13479;49.044;8.716;2023-02-26T06:16:57;9.00;;;2.60;;
25609;SDS011;13479;49.044;8.716;2023-02-26T06:19:23;6.37;;;2.73;;
25609;SDS011;13479;49.044;8.716;2023-02-26T06:21:48;8.47;;;3.00;;
25609;SDS011;13479;49.044;8.716;2023-02-26T06:24:13;10.40;;;3.10;;
25609;SDS011;13479;49.044;8.716;2023-02-26T06:26:39;7.20;;;2.87;;
25609;SDS011;13479;49.044;8.716;2023-02-26T06:29:04;5.73;;;2.40;;
25609;SDS011;13479;49.044;8.716;2023-02-26T06:31:29;6.57;;;2.70;;
25609;SDS011;13479;49.044;8.716;2023-02-26T06:33:54;4.57;;;2.80;;
25609;SDS011;13479;49.044;8.716;2023-02-26T06:36:20;8.13;;;3.87;;
25609;SDS011;13479;49.044;8.716;2023-02-26T06:38:45;7.90;;;3.90;;
25609;SDS011;13479;49.044;8.716;2023-02-26T06:41:11;12.13;;;4.20;;
25609;SDS011;13479;49.044;8.716;2023-02-26T06:43:36;7.90;;;3.90;;
25609;SDS011;13479;49.044;8.716;2023-02-26T06:46:01;6.83;;;3.63;;
25609;SDS011;13479;49.044;8.716;2023-02-26T06:48:27;9.77;;;5.10;;
25609;SDS011;13479;49.044;8.716;2023-02-26T06:50:52;11.43;;;4.00;;
25609;SDS011;13479;49.044;8.716;2023-02-26T06:53:18;8.37;;;4.10;;
25609;SDS011;13479;49.044;8.716;2023-02-26T06:55:43;8.17;;;3.77;;
25609;SDS011;13479;49.044;8.716;2023-02-26T06:58:10;9.60;;;3.67;;
25609;SDS011;13479;49.044;8.716;2023-02-26T07:00:36;6.83;;;2.60;;
25609;SDS011;13479;49.044;8.716;2023-02-26T07:03:02;6.03;;;2.80;;
25609;SDS011;13479;49.044;8.716;2023-02-26T07:05:28;6.63;;;2.83;;
25609;SDS011;13479;49.044;8.716;2023-02-26T07:07:53;4.93;;;2.40;;
25609;SDS011;13479;49.044;8.716;2023-02-26T07:10:18;4.93;;;2.43;;
25609;SDS011;13479;49.044;8.716;2023-02-26T07:12:45;6.47;;;2.40;;
25609;SDS011;13479;49.044;8.716;2023-02-26T07:15:10;6.53;;;2.47;;
25609;SDS011;13479;49.044;8.716;2023-02-26T07:17:36;5.23;;;2.37;;
25609;SDS011;13479;49.044;8.716;2023-02-26T07:20:01;7.17;;;2.77;;
25609;SDS011;13479;49.044;8.716;2023-02-26T07:22:30;8.13;;;2.70;;
25609;SDS011;13479;49.044;8.716;2023-02-26T07:24:56;5.33;;;2.53;;
25609;SDS011;13479;49.044;8.716;2023-02-26T07:27:24;7.03;;;2.10;;
25609;SDS011;13479;49.044;8.716;2023-02-26T07:29:49;4.07;;;1.67;;
25609;SDS011;13479;49.044;8.716;2023-02-26T07:32:15;4.73;;;1.83;;
25609;SDS011;13479;49.044;8.716;2023-02-26T07:34:40;4.43;;;1.93;;
25609;SDS011;13479;49.044;8.716;2023-02-26T07:37:06;3.70;;;1.70;;
25609;SDS011;13479;49.044;8.716;2023-02-26T07:39:31;3.73;;;1.77;;
25609;SDS011;13479;49.044;8.716;2023-02-26T07:41:56;5.23;;;1.97;;
25609;SDS011;13479;49.044;8.716;2023-02-26T07:44:21;3.87;;;1.73;;
25609;SDS011;13479;49.044;8.716;2023-02-26T07:46:47;5.07;;;2.40;;
25609;SDS011;13479;49.044;8.716;2023-02-26T07:49:12;3.50;;;1.40;;
25609;SDS011;13479;49.044;8.716;2023-02-26T07:51:37;6.00;;;1.90;;
25609;SDS011;13479;49.044;8.716;2023-02-26T07:54:03;8.37;;;2.00;;
25609;SDS011;13479;49.044;8.716;2023-02-26T07:56:28;5.03;;;1.67;;
25609;SDS011;13479;49.044;8.716;2023-02-26T07:58:54;6.23;;;1.83;;
25609;SDS011;13479;49.044;8.716;2023-02-26T08:01:19;4.33;;;1.90;;
25609;SDS011;13479;49.044;8.716;2023-02-26T08:03:45;4.93;;;2.13;;
25609;SDS011;13479;49.044;8.716;2023-02-26T08:06:10;6.70;;;2.30;;
25609;SDS011;13479;49.044;8.716;2023-02-26T08:08:35;6.70;;;2.10;;
25609;SDS011;13479;49.044;8.716;2023-02-26T08:11:01;4.07;;;1.70;;
25609;SDS011;13479;49.044;8.716;2023-02-26T08:13:26;4.23;;;1.77;;
25609;SDS011;13479;49.044;8.716;2023-02-26T08:15:52;4.60;;;1.70;;
25609;SDS011;13479;49.044;8.716;2023-02-26T08:18:17;3.60;;;1.67;;
25609;SDS011;13479;49.044;8.716;2023-02-26T08:20:42;5.80;;;1.60;;
25609;SDS011;13479;49.044;8.716;2023-02-26T08:23:08;4.30;;;1.60;;
25609;SDS011;13479;49.044;8.716;2023-02-26T08:25:33;5.07;;;1.30;;
25609;SDS011;13479;49.044;8.716;2023-02-26T08:27:58;5.63;;;1.60;;
25609;SDS011;13479;49.044;8.716;2023-02-26T08:30:25;4.27;;;1.37;;
25609;SDS011;13479;49.044;8.716;2023-02-26T08:32:50;6.43;;;1.97;;
25609;SDS011;13479;49.044;8.716;2023-02-26T08:35:15;5.03;;;1.50;;
25609;SDS011;13479;49.044;8.716;2023-02-26T08:37:41;5.67;;;1.50;;
25609;SDS011;13479;49.044;8.716;2023-02-26T08:40:07;3.40;;;1.17;;
25609;SDS011;13479;49.044;8.716;2023-02-26T08:42:33;5.23;;;1.50;;
25609;SDS011;13479;49.044;8.716;2023-02-26T08:44:59;4.73;;;1.53;;
25609;SDS011;13479;49.044;8.716;2023-02-26T08:47:24;7.40;;;1.40;;
25609;SDS011;13479;49.044;8.716;2023-02-26T08:49:49;4.47;;;1.10;;
25609;SDS011;13479;49.044;8.716;2023-02-26T08:52:14;6.17;;;1.90;;
25609;SDS011;13479;49.044;8.716;2023-02-26T08:54:40;3.80;;;1.20;;
25609;SDS011;13479;49.044;8.716;2023-02-26T08:57:05;4.13;;;1.40;;
25609;SDS011;13479;49.044;8.716;2023-02-26T08:59:30;3.40;;;1.30;;
25609;SDS011;13479;49.044;8.716;2023-02-26T09:01:55;5.37;;;1.20;;
25609;SDS011;13479;49.044;8.716;2023-02-26T09:04:21;2.10;;;0.97;;
25609;SDS011;13479;49.044;8.716;2023-02-26T09:06:46;3.47;;;1.40;;
25609;SDS011;13479;49.044;8.716;2023-02-26T09:09:11;2.28;;;1.02;;
25609;SDS011;13479;49.044;8.716;2023-02-26T09:11:37;1.98;;;1.10;;
25609;SDS011;13479;49.044;8.716;2023-02-26T09:14:03;9.27;;;1.20;;
25609;SDS011;13479;49.044;8.716;2023-02-26T09:16:29;6.28;;;1.40;;
25609;SDS011;13479;49.044;8.716;2023-02-26T09:18:55;3.23;;;1.00;;
25609;SDS011;13479;49.044;8.716;2023-02-26T09:21:21;4.20;;;0.97;;
25609;SDS011;13479;49.044;8.716;2023-02-26T09:23:47;3.83;;;1.20;;
25609;SDS011;13479;49.044;8.716;2023-02-26T09:26:13;5.97;;;1.57;;
25609;SDS011;13479;49.044;8.716;2023-02-26T09:28:38;4.13;;;1.07;;
25609;SDS011;13479;49.044;8.716;2023-02-26T09:31:04;3.90;;;1.20;;
25609;SDS011;13479;49.044;8.716;2023-02-26T09:33:31;5.97;;;1.47;;
25609;SDS011;13479;49.044;8.716;2023-02-26T09:35:56;6.33;;;1.67;;
25609;SDS011;13479;49.044;8.716;2023-02-26T09:38:21;3.40;;;1.00;;
25609;SDS011;13479;49.044;8.716;2023-02-26T09:41:00;2.07;;;0.93;;
25609;SDS011;13479;49.044;8.716;2023-02-26T09:43:46;4.93;;;1.40;;
25609;SDS011;13479;49.044;8.716;2023-02-26T09:52:15;2.73;;;0.83;;
25609;SDS011;13479;49.044;8.716;2023-02-26T09:54:47;3.53;;;0.83;;
25609;SDS011;13479;49.044;8.716;2023-02-26T09:57:24;2.90;;;0.80;;
25609;SDS011;13479;49.044;8.716;2023-02-26T09:59:53;3.83;;;1.03;;
25609;SDS011;13479;49.044;8.716;2023-02-26T10:04:54;1.70;;;0.80;;
25609;SDS011;13479;49.044;8.716;2023-02-26T10:10:28;4.03;;;1.93;;
25609;SDS011;13479;49.044;8.716;2023-02-26T10:13:16;5.23;;;1.40;;
25609;SDS011;13479;49.044;8.716;2023-02-26T10:16:08;1.43;;;0.43;;
25609;SDS011;13479;49.044;8.716;2023-02-26T10:18:47;1.87;;;0.70;;
25609;SDS011;13479;49.044;8.716;2023-02-26T10:21:39;3.50;;;1.03;;
25609;SDS011;13479;49.044;8.716;2023-02-26T10:24:30;2.73;;;0.67;;
25609;SDS011;13479;49.044;8.716;2023-02-26T10:27:08;5.87;;;2.20;;
25609;SDS011;13479;49.044;8.716;2023-02-26T10:29:44;3.53;;;1.20;;
25609;SDS011;13479;49.044;8.716;2023-02-26T10:34:46;2.67;;;1.20;;
25609;SDS011;13479;49.044;8.716;2023-02-26T10:42:58;1.13;;;0.50;;
25609;SDS011;13479;49.044;8.716;2023-02-26T10:48:13;2.13;;;0.73;;
25609;SDS011;13479;49.044;8.716;2023-02-26T10:50:48;2.50;;;1.13;;
25609;SDS011;13479;49.044;8.716;2023-02-26T10:53:21;3.50;;;0.73;;
25609;SDS011;13479;49.044;8.716;2023-02-26T10:56:05;2.70;;;0.53;;
25609;SDS011;13479;49.044;8.716;2023-02-26T10:58:34;2.30;;;0.70;;
25609;SDS011;13479;49.044;8.716;2023-02-26T11:01:00;1.70;;;1.00;;
25609;SDS011;13479;49.044;8.716;2023-02-26T11:06:01;1.90;;;1.00;;
25609;SDS011;13479;49.044;8.716;2023-02-26T11:08:33;1.33;;;0.70;;
25609;SDS011;13479;49.044;8.716;2023-02-26T11:11:04;2.80;;;0.90;;
25609;SDS011;13479;49.044;8.716;2023-02-26T11:13:31;0.80;;;0.60;;
25609;SDS011;13479;49.044;8.716;2023-02-26T11:16:04;3.77;;;1.20;;
25609;SDS011;13479;49.044;8.716;2023-02-26T11:18:43;1.80;;;0.93;;
25609;SDS011;13479;49.044;8.716;2023-02-26T11:21:16;1.60;;;0.73;;
25609;SDS011;13479;49.044;8.716;2023-02-26T11:23:43;2.27;;;0.60;;
25609;SDS011;13479;49.044;8.716;2023-02-26T11:26:17;1.13;;;0.57;;
25609;SDS011;13479;49.044;8.716;2023-02-26T11:28:45;11.30;;;3.10;;
25609;SDS011;13479;49.044;8.716;2023-02-26T11:31:14;9.70;;;2.27;;
25609;SDS011;13479;49.044;8.716;2023-02-26T11:33:44;6.03;;;1.83;;
25609;SDS011;13479;49.044;8.716;2023-02-26T11:36:15;2.40;;;1.37;;
25609;SDS011;13479;49.044;8.716;2023-02-26T11:38:51;5.70;;;1.80;;
25609;SDS011;13479;49.044;8.716;2023-02-26T11:41:17;1.13;;;0.53;;
25609;SDS011;13479;49.044;8.716;2023-02-26T11:43:44;2.90;;;0.97;;
25609;SDS011;13479;49.044;8.716;2023-02-26T11:46:13;5.33;;;1.83;;
25609;SDS011;13479;49.044;8.716;2023-02-26T11:48:46;2.20;;;1.00;;
25609;SDS011;13479;49.044;8.716;2023-02-26T11:51:13;0.70;;;0.70;;
25609;SDS011;13479;49.044;8.716;2023-02-26T11:54:01;3.30;;;1.43;;
25609;SDS011;13479;49.044;8.716;2023-02-26T11:56:37;2.77;;;0.80;;
25609;SDS011;13479;49.044;8.716;2023-02-26T11:59:06;0.87;;;0.57;;
25609;SDS011;13479;49.044;8.716;2023-02-26T12:01:40;1.77;;;0.70;;
25609;SDS011;13479;49.044;8.716;2023-02-26T12:04:08;1.40;;;0.70;;
25609;SDS011;13479;49.044;8.716;2023-02-26T12:06:36;0.83;;;0.50;;
25609;SDS011;13479;49.044;8.716;2023-02-26T12:09:01;1.93;;;0.90;;
25609;SDS011;13479;49.044;8.716;2023-02-26T12:23:01;2.93;;;1.57;;
25609;SDS011;13479;49.044;8.716;2023-02-26T12:26:07;21.13;;;6.60;;
25609;SDS011;13479;49.044;8.716;2023-02-26T12:28:58;1.80;;;0.93;;
25609;SDS011;13479;49.044;8.716;2023-02-26T12:39:31;0.80;;;0.53;;
25609;SDS011;13479;49.044;8.716;2023-02-26T12:45:33;1.27;;;0.80;;
25609;SDS011;13479;49.044;8.716;2023-02-26T12:56:48;1.27;;;0.57;;
25609;SDS011;13479;49.044;8.716;2023-02-26T12:59:55;2.00;;;1.20;;
25609;SDS011;13479;49.044;8.716;2023-02-26T13:02:43;1.10;;;0.80;;
25609;SDS011;13479;49.044;8.716;2023-02-26T13:05:44;1.37;;;0.50;;
25609;SDS011;13479;49.044;8.716;2023-02-26T13:08:40;0.50;;;0.50;;
25609;SDS011;13479;49.044;8.716;2023-02-26T13:16:51;1.40;;;0.60;;
25609;SDS011;13479;49.044;8.716;2023-02-26T13:19:36;1.93;;;0.70;;
25609;SDS011;13479;49.044;8.716;2023-02-26T13:22:12;0.77;;;0.60;;
25609;SDS011;13479;49.044;8.716;2023-02-26T13:24:43;0.90;;;0.50;;
25609;SDS011;13479;49.044;8.716;2023-02-26T13:27:21;0.90;;;0.50;;
25609;SDS011;13479;49.044;8.716;2023-02-26T13:29:58;2.10;;;0.80;;
25609;SDS011;13479;49.044;8.716;2023-02-26T13:32:34;0.77;;;0.60;;
25609;SDS011;13479;49.044;8.716;2023-02-26T13:37:44;1.93;;;0.90;;
25609;SDS011;13479;49.044;8.716;2023-02-26T13:43:28;1.00;;;0.60;;
25609;SDS011;13479;49.044;8.716;2023-02-26T13:48:59;1.30;;;0.97;;
25609;SDS011;13479;49.044;8.716;2023-02-26T13:51:46;0.70;;;0.50;;
25609;SDS011;13479;49.044;8.716;2023-02-26T14:06:41;1.70;;;0.60;;
25609;SDS011;13479;49.044;8.716;2023-02-26T14:14:30;1.23;;;0.60;;
25609;SDS011;13479;49.044;8.716;2023-02-26T14:19:37;2.03;;;0.90;;
25609;SDS011;13479;49.044;8.716;2023-02-26T14:22:17;0.97;;;0.60;;
25609;SDS011;13479;49.044;8.716;2023-02-26T14:24:44;2.70;;;1.17;;
25609;SDS011;13479;49.044;8.716;2023-02-26T14:29:43;1.20;;;0.70;;
25609;SDS011;13479;49.044;8.716;2023-02-26T14:34:58;2.50;;;0.93;;
25609;SDS011;13479;49.044;8.716;2023-02-26T14:37:30;1.83;;;0.70;;
25609;SDS011;13479;49.044;8.716;2023-02-26T14:40:05;0.50;;;0.30;;
25609;SDS011;13479;49.044;8.716;2023-02-26T14:42:49;1.20;;;0.77;;
25609;SDS011;13479;49.044;8.716;2023-02-26T14:45:35;0.83;;;0.60;;
25609;SDS011;13479;49.044;8.716;2023-02-26T14:48:03;0.80;;;0.50;;
25609;SDS011;13479;49.044;8.716;2023-02-26T14:50:43;0.53;;;0.30;;
25609;SDS011;13479;49.044;8.716;2023-02-26T14:53:44;0.43;;;0.30;;
25609;SDS011;13479;49.044;8.716;2023-02-26T14:59:29;1.47;;;0.57;;
25609;SDS011;13479;49.044;8.716;2023-02-26T15:10:49;5.13;;;2.27;;
25609;SDS011;13479;49.044;8.716;2023-02-26T15:15:55;2.40;;;0.70;;
25609;SDS011;13479;49.044;8.716;2023-02-26T15:24:11;0.90;;;0.50;;
25609;SDS011;13479;49.044;8.716;2023-02-26T15:26:42;1.77;;;0.70;;
25609;SDS011;13479;49.044;8.716;2023-02-26T15:29:12;2.93;;;0.90;;
25609;SDS011;13479;49.044;8.716;2023-02-26T15:31:43;2.47;;;0.90;;
25609;SDS011;13479;49.044;8.716;2023-02-26T15:34:18;1.33;;;0.73;;
25609;SDS011;13479;49.044;8.716;2023-02-26T15:36:45;1.80;;;0.77;;
25609;SDS011;13479;49.044;8.716;2023-02-26T15:39:13;3.17;;;0.90;;
25609;SDS011;13479;49.044;8.716;2023-02-26T15:41:41;1.63;;;0.80;;
25609;SDS011;13479;49.044;8.716;2023-02-26T15:44:08;1.27;;;0.43;;
25609;SDS011;13479;49.044;8.716;2023-02-26T15:46:39;4.03;;;1.17;;
25609;SDS011;13479;49.044;8.716;2023-02-26T15:49:12;1.70;;;0.70;;
25609;SDS011;13479;49.044;8.716;2023-02-26T15:51:41;1.13;;;0.67;;
25609;SDS011;13479;49.044;8.716;2023-02-26T15:54:10;2.00;;;0.83;;
25609;SDS011;13479;49.044;8.716;2023-02-26T15:56:41;1.87;;;0.57;;
25609;SDS011;13479;49.044;8.716;2023-02-26T15:59:17;2.20;;;1.27;;
25609;SDS011;13479;49.044;8.716;2023-02-26T16:01:47;0.67;;;0.43;;
25609;SDS011;13479;49.044;8.716;2023-02-26T16:04:15;0.50;;;0.40;;
25609;SDS011;13479;49.044;8.716;2023-02-26T16:06:44;4.90;;;2.00;;
25609;SDS011;13479;49.044;8.716;2023-02-26T16:09:16;0.77;;;0.50;;
25609;SDS011;13479;49.044;8.716;2023-02-26T16:11:44;7.60;;;2.87;;
25609;SDS011;13479;49.044;8.716;2023-02-26T16:14:15;2.20;;;1.00;;
25609;SDS011;13479;49.044;8.716;2023-02-26T16:16:45;0.80;;;0.60;;
25609;SDS011;13479;49.044;8.716;2023-02-26T16:19:18;2.13;;;0.70;;
25609;SDS011;13479;49.044;8.716;2023-02-26T16:21:47;1.40;;;0.90;;
25609;SDS011;13479;49.044;8.716;2023-02-26T16:24:17;1.43;;;0.60;;
25609;SDS011;13479;49.044;8.716;2023-02-26T16:26:54;2.30;;;0.97;;
25609;SDS011;13479;49.044;8.716;2023-02-26T16:29:26;3.20;;;1.40;;
25609;SDS011;13479;49.044;8.716;2023-02-26T16:31:54;2.07;;;1.10;;
25609;SDS011;13479;49.044;8.716;2023-02-26T16:34:26;1.10;;;0.70;;
25609;SDS011;13479;49.044;8.716;2023-02-26T16:36:52;1.43;;;0.70;;
25609;SDS011;13479;49.044;8.716;2023-02-26T16:39:25;2.90;;;1.00;;
25609;SDS011;13479;49.044;8.716;2023-02-26T16:42:01;2.47;;;1.00;;
25609;SDS011;13479;49.044;8.716;2023-02-26T16:44:35;2.27;;;0.73;;
25609;SDS011;13479;49.044;8.716;2023-02-26T16:47:07;8.03;;;3.33;;
25609;SDS011;13479;49.044;8.716;2023-02-26T16:49:35;3.10;;;1.30;;
25609;SDS011;13479;49.044;8.716;2023-02-26T16:52:02;1.27;;;0.80;;
25609;SDS011;13479;49.044;8.716;2023-02-26T16:54:36;4.10;;;1.27;;
25609;SDS011;13479;49.044;8.716;2023-02-26T16:57:05;2.37;;;1.10;;
25609;SDS011;13479;49.044;8.716;2023-02-26T16:59:37;7.93;;;2.23;;
25609;SDS011;13479;49.044;8.716;2023-02-26T17:02:11;14.02;;;4.50;;
25609;SDS011;13479;49.044;8.716;2023-02-26T17:04:43;3.93;;;1.63;;
25609;SDS011;13479;49.044;8.716;2023-02-26T17:07:16;7.50;;;2.20;;
25609;SDS011;13479;49.044;8.716;2023-02-26T17:09:50;8.70;;;2.33;;
25609;SDS011;13479;49.044;8.716;2023-02-26T17:12:19;2.80;;;1.43;;
25609;SDS011;13479;49.044;8.716;2023-02-26T17:14:47;12.70;;;4.47;;
25609;SDS011;13479;49.044;8.716;2023-02-26T17:17:22;4.27;;;1.10;;
25609;SDS011;13479;49.044;8.716;2023-02-26T17:19:48;2.00;;;0.80;;
25609;SDS011;13479;49.044;8.716;2023-02-26T17:22:14;1.80;;;1.00;;
25609;SDS011;13479;49.044;8.716;2023-02-26T17:24:43;3.40;;;1.40;;
25609;SDS011;13479;49.044;8.716;2023-02-26T17:27:27;3.70;;;1.50;;
25609;SDS011;13479;49.044;8.716;2023-02-26T17:29:58;4.53;;;1.50;;
25609;SDS011;13479;49.044;8.716;2023-02-26T17:32:26;8.40;;;2.27;;
25609;SDS011;13479;49.044;8.716;2023-02-26T17:34:52;1.07;;;0.30;;
25609;SDS011;13479;49.044;8.716;2023-02-26T17:37:18;1.20;;;0.57;;
25609;SDS011;13479;49.044;8.716;2023-02-26T17:39:44;2.83;;;0.70;;
25609;SDS011;13479;49.044;8.716;2023-02-26T17:42:10;3.13;;;0.70;;
25609;SDS011;13479;49.044;8.716;2023-02-26T17:44:37;3.00;;;0.73;;
25609;SDS011;13479;49.044;8.716;2023-02-26T17:47:02;4.07;;;1.47;;
25609;SDS011;13479;49.044;8.716;2023-02-26T17:49:27;19.17;;;5.60;;
25609;SDS011;13479;49.044;8.716;2023-02-26T17:51:53;15.73;;;4.80;;
25609;SDS011;13479;49.044;8.716;2023-02-26T17:54:18;8.30;;;2.67;;
25609;SDS011;13479;49.044;8.716;2023-02-26T17:56:43;3.43;;;1.40;;
25609;SDS011;13479;49.044;8.716;2023-02-26T17:59:09;3.97;;;1.13;;
25609;SDS011;13479;49.044;8.716;2023-02-26T18:01:36;5.77;;;1.93;;
25609;SDS011;13479;49.044;8.716;2023-02-26T18:04:02;13.57;;;4.03;;
25609;SDS011;13479;49.044;8.716;2023-02-26T18:06:27;1.23;;;0.50;;
25609;SDS011;13479;49.044;8.716;2023-02-26T18:08:57;2.70;;;1.00;;
25609;SDS011;13479;49.044;8.716;2023-02-26T18:11:22;3.23;;;1.10;;
25609;SDS011;13479;49.044;8.716;2023-02-26T18:13:49;1.83;;;0.73;;
25609;SDS011;13479;49.044;8.716;2023-02-26T18:16:19;0.80;;;0.53;;
25609;SDS011;13479;49.044;8.716;2023-02-26T18:18:46;2.83;;;0.60;;
25609;SDS011;13479;49.044;8.716;2023-02-26T18:21:12;0.97;;;0.57;;
25609;SDS011;13479;49.044;8.716;2023-02-26T18:23:38;0.83;;;0.50;;
25609;SDS011;13479;49.044;8.716;2023-02-26T18:26:04;0.30;;;0.20;;
25609;SDS011;13479;49.044;8.716;2023-02-26T18:28:30;3.87;;;0.73;;
25609;SDS011;13479;49.044;8.716;2023-02-26T18:30:55;1.10;;;0.30;;
25609;SDS011;13479;49.044;8.716;2023-02-26T18:33:21;1.00;;;0.40;;
25609;SDS011;13479;49.044;8.716;2023-02-26T18:35:48;2.67;;;0.43;;
25609;SDS011;13479;49.044;8.716;2023-02-26T18:38:18;2.93;;;1.00;;
25609;SDS011;13479;49.044;8.716;2023-02-26T18:40:46;1.33;;;0.40;;
25609;SDS011;13479;49.044;8.716;2023-02-26T18:43:12;1.47;;;0.60;;
25609;SDS011;13479;49.044;8.716;2023-02-26T18:45:38;2.17;;;0.60;;
25609;SDS011;13479;49.044;8.716;2023-02-26T18:48:04;2.60;;;1.50;;
25609;SDS011;13479;49.044;8.716;2023-02-26T18:50:29;2.03;;;0.60;;
25609;SDS011;13479;49.044;8.716;2023-02-26T18:52:55;0.57;;;0.33;;
25609;SDS011;13479;49.044;8.716;2023-02-26T18:55:20;2.53;;;0.67;;
25609;SDS011;13479;49.044;8.716;2023-02-26T18:57:46;1.33;;;0.60;;
25609;SDS011;13479;49.044;8.716;2023-02-26T19:00:12;1.73;;;0.50;;
25609;SDS011;13479;49.044;8.716;2023-02-26T19:02:39;0.57;;;0.27;;
25609;SDS011;13479;49.044;8.716;2023-02-26T19:05:05;1.70;;;0.70;;
25609;SDS011;13479;49.044;8.716;2023-02-26T19:07:31;3.40;;;1.00;;
25609;SDS011;13479;49.044;8.716;2023-02-26T19:09:57;2.20;;;0.47;;
25609;SDS011;13479;49.044;8.716;2023-02-26T19:12:22;1.57;;;0.70;;
25609;SDS011;13479;49.044;8.716;2023-02-26T19:14:48;0.70;;;0.30;;
25609;SDS011;13479;49.044;8.716;2023-02-26T19:17:14;2.00;;;1.10;;
25609;SDS011;13479;49.044;8.716;2023-02-26T19:19:39;2.00;;;0.73;;
25609;SDS011;13479;49.044;8.716;2023-02-26T19:22:06;1.60;;;0.80;;
25609;SDS011;13479;49.044;8.716;2023-02-26T19:24:32;2.07;;;0.50;;
25609;SDS011;13479;49.044;8.716;2023-02-26T19:26:58;1.13;;;0.50;;
25609;SDS011;13479;49.044;8.716;2023-02-26T19:29:23;2.00;;;0.60;;
25609;SDS011;13479;49.044;8.716;2023-02-26T19:31:48;0.53;;;0.33;;
25609;SDS011;13479;49.044;8.716;2023-02-26T19:34:14;2.17;;;0.57;;
25609;SDS011;13479;49.044;8.716;2023-02-26T19:36:39;3.73;;;0.80;;
25609;SDS011;13479;49.044;8.716;2023-02-26T19:39:07;0.50;;;0.23;;
25609;SDS011;13479;49.044;8.716;2023-02-26T19:41:35;1.70;;;0.57;;
25609;SDS011;13479;49.044;8.716;2023-02-26T19:44:00;0.97;;;0.40;;
25609;SDS011;13479;49.044;8.716;2023-02-26T19:46:26;1.67;;;0.60;;
25609;SDS011;13479;49.044;8.716;2023-02-26T19:48:51;2.60;;;1.00;;
25609;SDS011;13479;49.044;8.716;2023-02-26T19:51:16;2.23;;;0.40;;
25609;SDS011;13479;49.044;8.716;2023-02-26T19:53:42;0.97;;;0.37;;
25609;SDS011;13479;49.044;8.716;2023-02-26T19:56:08;1.50;;;0.47;;
25609;SDS011;13479;49.044;8.716;2023-02-26T19:58:33;14.10;;;0.80;;
25609;SDS011;13479;49.044;8.716;2023-02-26T20:01:00;2.27;;;0.63;;
25609;SDS011;13479;49.044;8.716;2023-02-26T20:03:26;1.47;;;0.57;;
25609;SDS011;13479;49.044;8.716;2023-02-26T20:05:52;1.87;;;0.53;;
25609;SDS011;13479;49.044;8.716;2023-02-26T20:08:19;1.43;;;0.60;;
25609;SDS011;13479;49.044;8.716;2023-02-26T20:10:48;2.50;;;0.77;;
25609;SDS011;13479;49.044;8.716;2023-02-26T20:13:14;0.93;;;0.27;;
25609;SDS011;13479;49.044;8.716;2023-02-26T20:15:41;4.10;;;0.93;;
25609;SDS011;13479;49.044;8.716;2023-02-26T20:18:07;0.40;;;0.37;;
25609;SDS011;13479;49.044;8.716;2023-02-26T20:20:32;2.13;;;0.90;;
25609;SDS011;13479;49.044;8.716;2023-02-26T20:22:58;2.17;;;0.77;;
25609;SDS011;13479;49.044;8.716;2023-02-26T20:25:23;1.83;;;0.70;;
25609;SDS011;13479;49.044;8.716;2023-02-26T20:27:48;1.00;;;0.60;;
25609;SDS011;13479;49.044;8.716;2023-02-26T20:30:14;1.47;;;0.53;;
25609;SDS011;13479;49.044;8.716;2023-02-26T20:32:39;2.20;;;0.47;;
25609;SDS011;13479;49.044;8.716;2023-02-26T20:35:05;0.60;;;0.30;;
25609;SDS011;13479;49.044;8.716;2023-02-26T20:37:31;5.30;;;0.77;;
25609;SDS011;13479;49.044;8.716;2023-02-26T20:39:56;2.13;;;0.63;;
25609;SDS011;13479;49.044;8.716;2023-02-26T20:42:21;0.63;;;0.40;;
25609;SDS011;13479;49.044;8.716;2023-02-26T20:44:47;0.60;;;0.33;;
25609;SDS011;13479;49.044;8.716;2023-02-26T20:47:12;1.77;;;0.70;;
25609;SDS011;13479;49.044;8.716;2023-02-26T20:49:37;2.50;;;0.70;;
25609;SDS011;13479;49.044;8.716;2023-02-26T20:52:03;1.23;;;0.50;;
25609;SDS011;13479;49.044;8.716;2023-02-26T20:54:28;2.70;;;0.50;;
25609;SDS011;13479;49.044;8.716;2023-02-26T20:56:53;0.93;;;0.30;;
25609;SDS011;13479;49.044;8.716;2023-02-26T20:59:19;2.43;;;0.47;;
25609;SDS011;13479;49.044;8.716;2023-02-26T21:01:47;3.30;;;0.63;;
25609;SDS011;13479;49.044;8.716;2023-02-26T21:04:15;2.40;;;0.77;;
25609;SDS011;13479;49.044;8.716;2023-02-26T21:06:41;1.30;;;0.67;;
25609;SDS011;13479;49.044;8.716;2023-02-26T21:09:07;1.60;;;0.47;;
25609;SDS011;13479;49.044;8.716;2023-02-26T21:11:34;1.10;;;0.50;;
25609;SDS011;13479;49.044;8.716;2023-02-26T21:14:00;1.20;;;0.60;;
25609;SDS011;13479;49.044;8.716;2023-02-26T21:16:27;1.30;;;0.50;;
25609;SDS011;13479;49.044;8.716;2023-02-26T21:18:53;2.70;;;0.57;;
25609;SDS011;13479;49.044;8.716;2023-02-26T21:21:19;0.63;;;0.40;;
25609;SDS011;13479;49.044;8.716;2023-02-26T21:23:44;1.27;;;0.60;;
25609;SDS011;13479;49.044;8.716;2023-02-26T21:26:10;1.87;;;0.60;;
25609;SDS011;13479;49.044;8.716;2023-02-26T21:28:35;1.93;;;0.67;;
25609;SDS011;13479;49.044;8.716;2023-02-26T21:31:00;1.43;;;0.60;;
25609;SDS011;13479;49.044;8.716;2023-02-26T21:33:25;1.33;;;0.60;;
25609;SDS011;13479;49.044;8.716;2023-02-26T21:35:51;1.37;;;0.47;;
25609;SDS011;13479;49.044;8.716;2023-02-26T21:38:16;1.53;;;0.80;;
25609;SDS011;13479;49.044;8.716;2023-02-26T21:40:43;2.40;;;0.70;;
25609;SDS011;13479;49.044;8.716;2023-02-26T21:43:11;2.03;;;0.40;;
25609;SDS011;13479;49.044;8.716;2023-02-26T21:45:36;3.40;;;0.77;;
25609;SDS011;13479;49.044;8.716;2023-02-26T21:48:03;1.20;;;0.40;;
25609;SDS011;13479;49.044;8.716;2023-02-26T21:50:29;1.10;;;0.60;;
25609;SDS011;13479;49.044;8.716;2023-02-26T21:52:55;1.57;;;0.70;;
25609;SDS011;13479;49.044;8.716;2023-02-26T21:55:20;2.87;;;0.73;;